Time;durP1;ratioP1;P1;durP2;ratioP2;P2;SDS_P1;SDS_P2;PMS_P1;PMS_P2;Temp;Humidity;BMP_temperature;BMP_pressure;BME280_temperature;BME280_humidity;BME280_pressure;Samples;Min_cycle;Max_cycle;Signal;HPM_P1;HPM_P2
2022/06/19 00:03:58;;;;;;;9.17;4.00;;;24.20;71.10;;;;;;10485933;28;20212;-79
2022/06/19 00:09:01;;;;;;;22.90;5.70;;;24.00;71.50;;;;;;10516153;28;20200;-79
2022/06/19 00:14:06;;;;;;;9.47;4.00;;;24.00;71.40;;;;;;10476415;28;20258;-79
2022/06/19 00:19:11;;;;;;;6.10;3.83;;;23.90;71.40;;;;;;10496608;28;20288;-79
2022/06/19 00:24:13;;;;;;;8.23;3.90;;;23.90;71.50;;;;;;10504123;23;20232;-80
2022/06/19 00:29:16;;;;;;;10.53;4.60;;;23.80;71.50;;;;;;10496623;28;20200;-80
2022/06/19 00:34:18;;;;;;;5.40;4.07;;;23.80;71.40;;;;;;10464293;28;20223;-80
2022/06/19 00:39:21;;;;;;;8.63;4.10;;;23.80;71.40;;;;;;10459063;28;20243;-80
2022/06/19 00:44:25;;;;;;;8.63;4.13;;;23.70;71.70;;;;;;10458273;28;20303;-80
2022/06/19 00:49:32;;;;;;;6.03;3.10;;;23.70;71.70;;;;;;10487010;28;20204;-79
2022/06/19 00:54:40;;;;;;;5.57;4.20;;;23.60;72.00;;;;;;10489058;28;20688;-79
2022/06/19 00:59:49;;;;;;;6.57;3.90;;;23.60;72.80;;;;;;10465379;28;20659;-79
2022/06/19 01:04:53;;;;;;;9.07;4.30;;;23.60;72.40;;;;;;10479264;28;20216;-80
2022/06/19 01:09:55;;;;;;;11.60;3.93;;;23.50;72.90;;;;;;10477684;28;20224;-80
2022/06/19 01:15:03;;;;;;;6.23;3.60;;;23.50;72.70;;;;;;10479864;28;20312;-81
2022/06/19 01:20:09;;;;;;;8.97;3.63;;;23.50;72.70;;;;;;10492918;28;20286;-83
2022/06/19 01:25:15;;;;;;;4.47;3.50;;;23.50;72.90;;;;;;10489778;28;20610;-83
2022/06/19 01:30:18;;;;;;;7.77;3.90;;;23.40;73.00;;;;;;10488407;28;20660;-83
2022/06/19 01:35:23;;;;;;;7.00;4.43;;;23.40;73.30;;;;;;10502680;28;20230;-80
2022/06/19 01:40:32;;;;;;;9.90;4.00;;;23.30;72.90;;;;;;10502475;28;20196;-80
2022/06/19 01:45:36;;;;;;;8.83;4.00;;;23.30;73.20;;;;;;10481061;28;20220;-81
2022/06/19 01:50:38;;;;;;;6.67;4.23;;;23.20;72.90;;;;;;10496522;28;20295;-81
2022/06/19 01:55:42;;;;;;;8.07;4.40;;;23.20;72.40;;;;;;10474901;28;20596;-80
2022/06/19 02:00:47;;;;;;;7.40;4.00;;;23.20;73.10;;;;;;10500943;28;20228;-81
2022/06/19 02:05:50;;;;;;;4.80;3.90;;;23.10;72.90;;;;;;10488910;28;20707;-80
2022/06/19 02:10:54;;;;;;;9.13;3.43;;;23.10;73.20;;;;;;10483272;28;20215;-79
2022/06/19 02:15:56;;;;;;;10.57;4.47;;;23.10;73.00;;;;;;10474596;28;20262;-79
2022/06/19 02:20:59;;;;;;;5.50;3.97;;;23.10;73.00;;;;;;10492632;28;20189;-80
2022/06/19 02:26:04;;;;;;;10.77;3.80;;;23.00;73.60;;;;;;10491004;28;20293;-79
2022/06/19 02:31:07;;;;;;;9.37;3.67;;;23.00;72.60;;;;;;10476410;28;20358;-80
2022/06/19 02:36:35;;;;;;;6.80;3.77;;;22.90;73.00;;;;;;10482319;28;20304;-80
2022/06/19 02:41:45;;;;;;;9.87;4.03;;;22.90;72.70;;;;;;10497260;28;20205;-80
2022/06/19 02:46:47;;;;;;;6.47;3.93;;;22.90;72.80;;;;;;10497601;28;20311;-80
2022/06/19 02:51:49;;;;;;;9.43;4.30;;;22.90;73.10;;;;;;10498975;28;20227;-80
2022/06/19 02:56:52;;;;;;;10.90;4.37;;;22.90;72.80;;;;;;10475684;28;20236;-80
2022/06/19 03:01:55;;;;;;;8.50;4.03;;;22.90;72.80;;;;;;10489525;28;20300;-80
2022/06/19 03:06:57;;;;;;;7.23;3.83;;;22.80;73.80;;;;;;10495812;28;20228;-80
2022/06/19 03:12:01;;;;;;;7.30;3.77;;;22.80;72.90;;;;;;10457068;28;20635;-80
2022/06/19 03:17:03;;;;;;;10.37;4.07;;;22.80;72.60;;;;;;10499578;28;20213;-79
2022/06/19 03:22:05;;;;;;;4.40;3.40;;;22.80;72.40;;;;;;10500572;28;20200;-80
2022/06/19 03:27:11;;;;;;;8.63;4.20;;;22.80;72.60;;;;;;10494907;28;20311;-80
2022/06/19 03:32:15;;;;;;;10.10;3.53;;;22.90;71.50;;;;;;10485537;28;20288;-82
2022/06/19 03:37:18;;;;;;;10.43;3.80;;;22.90;72.80;;;;;;10500281;28;20221;-82
2022/06/19 03:42:21;;;;;;;7.37;3.33;;;22.90;72.20;;;;;;10482940;28;20629;-82
2022/06/19 03:47:25;;;;;;;5.73;3.90;;;22.90;73.20;;;;;;10494711;28;20233;-81
2022/06/19 03:52:27;;;;;;;11.13;4.63;;;22.90;72.50;;;;;;10496717;28;20740;-82
2022/06/19 03:57:30;;;;;;;11.00;3.47;;;23.00;73.20;;;;;;10479894;28;20216;-81
2022/06/19 04:02:33;;;;;;;10.10;3.67;;;23.00;72.50;;;;;;10478222;28;20272;-80
2022/06/19 04:07:35;;;;;;;6.97;4.30;;;23.00;73.00;;;;;;10497731;28;20640;-81
2022/06/19 04:12:38;;;;;;;8.40;3.77;;;23.10;72.60;;;;;;10487207;28;20207;-80
2022/06/19 04:17:41;;;;;;;9.23;3.47;;;23.10;72.70;;;;;;10470173;28;20231;-80
2022/06/19 04:22:43;;;;;;;8.77;3.30;;;23.10;72.90;;;;;;10480705;28;20672;-79
2022/06/19 04:27:46;;;;;;;8.40;4.00;;;23.20;73.50;;;;;;10478823;28;20219;-82
2022/06/19 04:32:48;;;;;;;5.93;3.50;;;23.30;73.50;;;;;;10479557;28;20196;-81
2022/06/19 04:37:50;;;;;;;5.93;3.80;;;23.30;73.90;;;;;;10481217;28;20200;-82
2022/06/19 04:42:54;;;;;;;7.67;4.30;;;23.30;73.40;;;;;;10489214;28;20231;-81
2022/06/19 04:47:56;;;;;;;3.90;3.23;;;23.40;73.70;;;;;;10508417;28;20660;-82
2022/06/19 04:52:58;;;;;;;14.00;4.33;;;23.40;73.40;;;;;;10511348;28;20220;-83
2022/06/19 04:58:03;;;;;;;7.93;3.60;;;23.40;73.50;;;;;;10482871;28;20258;-82
2022/06/19 05:03:05;;;;;;;7.67;4.27;;;23.50;74.00;;;;;;10479841;28;20212;-81
2022/06/19 05:08:07;;;;;;;7.97;4.37;;;23.50;74.20;;;;;;10481917;28;20266;-81
2022/06/19 05:13:16;;;;;;;8.03;3.90;;;23.60;74.10;;;;;;10510763;28;20216;-81
2022/06/19 05:18:19;;;;;;;11.07;4.40;;;23.60;74.60;;;;;;10489619;28;20199;-81
2022/06/19 05:23:21;;;;;;;5.50;3.43;;;23.70;75.10;;;;;;10503304;28;20362;-81
2022/06/19 05:28:24;;;;;;;11.50;4.30;;;23.70;74.80;;;;;;10499554;28;20225;-81
2022/06/19 05:33:28;;;;;;;10.70;4.47;;;23.80;75.60;;;;;;10504717;28;20240;-80
2022/06/19 05:38:30;;;;;;;9.83;4.93;;;23.80;76.10;;;;;;10506563;28;20218;-80
2022/06/19 05:43:35;;;;;;;9.33;4.50;;;23.90;74.70;;;;;;10489932;28;20272;-80
2022/06/19 05:48:37;;;;;;;7.77;4.30;;;24.00;75.20;;;;;;10462606;28;20311;-79
2022/06/19 05:53:42;;;;;;;10.93;5.67;;;24.10;78.80;;;;;;10474665;28;20228;-78
2022/06/19 05:58:46;;;;;;;10.83;7.60;;;24.20;78.90;;;;;;10476225;28;20280;-78
2022/06/19 06:03:49;;;;;;;15.40;7.77;;;24.20;77.30;;;;;;10490506;28;20274;-79
2022/06/19 06:08:51;;;;;;;14.40;5.70;;;24.30;77.80;;;;;;10496105;28;20311;-78
2022/06/19 06:13:55;;;;;;;9.67;5.77;;;24.30;78.20;;;;;;10473598;28;20217;-77
2022/06/19 06:18:57;;;;;;;8.50;6.00;;;24.40;77.20;;;;;;10491874;28;20218;-78
2022/06/19 06:23:59;;;;;;;11.40;4.77;;;24.50;76.90;;;;;;10498308;28;20274;-77
2022/06/19 06:29:03;;;;;;;7.77;4.83;;;24.60;75.80;;;;;;10505108;28;20224;-80
2022/06/19 06:34:05;;;;;;;7.27;5.30;;;24.70;77.10;;;;;;10481294;28;20247;-81
2022/06/19 06:39:07;;;;;;;7.50;5.13;;;24.90;76.20;;;;;;10499722;28;20204;-80
2022/06/19 06:44:14;;;;;;;9.53;4.70;;;25.00;75.10;;;;;;10496172;28;20223;-79
2022/06/19 06:49:17;;;;;;;8.00;4.97;;;25.20;75.80;;;;;;10492126;28;20228;-78
2022/06/19 06:54:19;;;;;;;6.60;4.30;;;25.50;75.70;;;;;;10480049;28;20227;-78
2022/06/19 06:59:22;;;;;;;7.50;4.87;;;26.00;75.80;;;;;;10488491;28;20196;-78
2022/06/19 07:04:24;;;;;;;8.70;4.70;;;26.30;72.50;;;;;;10488470;28;20262;-78
2022/06/19 07:09:27;;;;;;;8.13;4.97;;;26.70;73.10;;;;;;10490376;28;20220;-78
2022/06/19 07:14:30;;;;;;;6.50;5.40;;;26.90;72.10;;;;;;10491645;28;20274;-78
2022/06/19 07:19:32;;;;;;;7.43;5.00;;;27.10;72.40;;;;;;10468151;28;20601;-80
2022/06/19 07:24:34;;;;;;;11.33;6.27;;;27.40;73.30;;;;;;10480689;28;20229;-81
2022/06/19 07:29:42;;;;;;;11.20;5.30;;;27.50;71.80;;;;;;10470128;28;20269;-80
2022/06/19 07:34:44;;;;;;;6.93;5.17;;;27.80;71.90;;;;;;10477492;28;20220;-78
2022/06/19 07:39:46;;;;;;;7.07;5.73;;;28.10;70.90;;;;;;10473293;28;20245;-78
2022/06/19 07:44:50;;;;;;;8.07;5.60;;;28.50;71.30;;;;;;10488525;28;20223;-78
2022/06/19 07:50:10;;;;;;;12.80;6.87;;;28.80;71.10;;;;;;10477974;28;20699;-77
2022/06/19 07:55:14;;;;;;;7.53;6.47;;;29.20;68.40;;;;;;10472280;28;20307;-77
2022/06/19 08:00:20;;;;;;;6.60;5.50;;;29.80;67.40;;;;;;10483454;28;20203;-76
2022/06/19 08:05:25;;;;;;;15.00;6.73;;;30.30;66.20;;;;;;10483844;28;20319;-77
2022/06/19 08:10:31;;;;;;;7.10;6.47;;;30.90;65.60;;;;;;10485658;28;20230;-77
2022/06/19 08:15:36;;;;;;;9.57;6.83;;;31.50;63.50;;;;;;10481203;28;20224;-77
2022/06/19 08:20:38;;;;;;;10.47;7.93;;;32.10;62.30;;;;;;10467284;28;20575;-78
2022/06/19 08:25:40;;;;;;;8.20;7.33;;;32.60;60.00;;;;;;10486394;28;20231;-79
2022/06/19 08:30:44;;;;;;;8.50;7.67;;;33.10;59.40;;;;;;10448848;28;20232;-76
2022/06/19 08:35:50;;;;;;;11.30;8.77;;;33.60;58.70;;;;;;10466989;28;20282;-80
2022/06/19 08:41:26;;;;;;;8.40;7.60;;;34.10;55.90;;;;;;10470128;28;20208;-77
2022/06/19 08:46:41;;;;;;;8.90;8.10;;;34.60;56.10;;;;;;10459312;28;20220;-78
2022/06/19 08:51:52;;;;;;;13.43;8.20;;;35.00;54.90;;;;;;10478653;28;20632;-79
2022/06/19 08:57:03;;;;;;;9.33;8.50;;;35.30;53.90;;;;;;10455477;28;20220;-80
2022/06/19 09:02:18;;;;;;;8.00;7.23;;;35.60;51.20;;;;;;10467161;28;20231;-77
2022/06/19 09:07:30;;;;;;;8.80;7.93;;;35.90;49.70;;;;;;10438351;28;20219;-78
2022/06/19 09:13:01;;;;;;;9.23;7.87;;;36.20;47.70;;;;;;10481754;28;20294;-78
2022/06/19 09:18:07;;;;;;;8.30;7.50;;;36.50;46.60;;;;;;10449009;28;20233;-79
2022/06/19 09:23:34;;;;;;;12.40;7.20;;;36.70;47.20;;;;;;10441093;28;20738;-77
2022/06/19 09:28:43;;;;;;;8.57;7.65;;;37.10;44.70;;;;;;10464451;28;20243;-78
2022/06/19 09:33:54;;;;;;;13.13;7.00;;;37.50;42.90;;;;;;10460759;28;20599;-81
2022/06/19 09:39:03;;;;;;;14.43;7.40;;;38.10;43.60;;;;;;10477183;28;20541;-78
2022/06/19 09:44:13;;;;;;;7.18;6.45;;;38.70;41.10;;;;;;10495655;28;20330;-78
2022/06/19 09:49:21;;;;;;;11.57;6.45;;;39.50;40.60;;;;;;10477733;28;21075;-78
2022/06/19 09:54:29;;;;;;;7.22;5.25;;;40.50;40.30;;;;;;10484049;28;20234;-78
2022/06/19 09:59:44;;;;;;;10.15;5.63;;;41.60;38.00;;;;;;10476035;28;20195;-78
2022/06/19 10:04:51;;;;;;;10.35;6.93;;;42.60;36.40;;;;;;10457871;28;20281;-78
2022/06/19 10:09:58;;;;;;;7.65;6.38;;;43.60;35.00;;;;;;10469193;28;20228;-78
2022/06/19 10:15:04;;;;;;;6.80;6.20;;;44.40;35.50;;;;;;10494041;28;20220;-81
2022/06/19 10:20:14;;;;;;;11.55;6.28;;;45.20;34.40;;;;;;10511866;28;20200;-81
2022/06/19 10:25:39;;;;;;;7.15;6.50;;;44.30;33.70;;;;;;10502710;28;20230;-82
2022/06/19 10:30:56;;;;;;;6.60;5.95;;;42.60;35.20;;;;;;10489469;28;20247;-81
2022/06/19 10:36:03;;;;;;;8.25;7.38;;;40.70;36.30;;;;;;10504496;28;20215;-81
2022/06/19 10:42:00;;;;;;;11.85;6.78;;;39.20;36.50;;;;;;10498237;28;20544;-81
2022/06/19 10:46:33;;;;;;;10.37;7.73;;;38.10;37.10;;;;;;10497120;28;20215;-81
2022/06/19 10:51:51;;;;;;;12.10;7.20;;;37.00;38.00;;;;;;10508469;28;20208;-81
2022/06/19 10:57:01;;;;;;;10.37;6.70;;;36.20;39.30;;;;;;10473581;28;20224;-81
2022/06/19 11:07:41;;;;;;;9.10;6.33;;;35.00;41.50;;;;;;10437381;28;20307;-81
2022/06/19 11:12:49;;;;;;;10.20;6.87;;;34.50;41.00;;;;;;10501003;28;20204;-81
2022/06/19 11:18:13;;;;;;;8.87;6.27;;;34.20;40.60;;;;;;10460939;28;20192;-78
2022/06/19 11:23:25;;;;;;;7.10;6.40;;;33.90;43.20;;;;;;10483479;28;20739;-79
2022/06/19 11:28:49;;;;;;;7.57;6.10;;;33.60;42.00;;;;;;10482798;28;20254;-79
2022/06/19 11:33:54;;;;;;;6.57;5.97;;;33.50;42.60;;;;;;10489245;28;20221;-79
2022/06/19 11:38:58;;;;;;;8.37;6.03;;;33.20;44.00;;;;;;10472617;28;20193;-79
2022/06/19 11:44:03;;;;;;;7.83;6.40;;;33.10;44.30;;;;;;10494000;28;20645;-78
2022/06/19 11:49:25;;;;;;;10.17;6.47;;;32.90;44.00;;;;;;10468037;28;20228;-79
2022/06/19 11:54:32;;;;;;;5.73;5.17;;;32.70;44.10;;;;;;10487651;28;20227;-79
2022/06/19 11:59:44;;;;;;;12.13;7.07;;;32.60;43.50;;;;;;10470552;28;20211;-79
2022/06/19 12:04:54;;;;;;;8.70;5.63;;;32.60;44.60;;;;;;10489745;28;20230;-79
2022/06/19 12:10:00;;;;;;;8.23;6.80;;;32.50;45.50;;;;;;10491740;28;20303;-78
2022/06/19 12:15:20;;;;;;;7.10;6.40;;;32.40;44.80;;;;;;10486171;28;20688;-78
2022/06/19 12:20:31;;;;;;;11.93;6.97;;;32.30;45.70;;;;;;10470955;28;20200;-79
2022/06/19 12:25:44;;;;;;;8.83;6.50;;;32.50;44.10;;;;;;10492803;28;20232;-77
2022/06/19 12:30:50;;;;;;;8.00;6.67;;;32.50;44.40;;;;;;10499410;28;20278;-80
2022/06/19 12:35:52;;;;;;;12.97;6.90;;;32.50;45.30;;;;;;10490289;28;20242;-80
2022/06/19 12:41:07;;;;;;;8.87;5.30;;;32.50;44.50;;;;;;10469883;28;20684;-79
2022/06/19 12:46:22;;;;;;;13.50;6.20;;;32.40;46.30;;;;;;10486356;28;20307;-78
2022/06/19 12:51:33;;;;;;;10.23;6.70;;;32.30;45.00;;;;;;10464300;28;20754;-78
2022/06/19 12:56:53;;;;;;;8.57;6.20;;;32.30;45.10;;;;;;10490049;28;20224;-79
2022/06/19 13:02:02;;;;;;;7.77;5.70;;;32.20;45.90;;;;;;10466086;28;20499;-80
2022/06/19 13:07:14;;;;;;;7.77;6.57;;;32.10;45.60;;;;;;10464110;28;20216;-79
2022/06/19 13:12:27;;;;;;;7.90;7.13;;;32.00;45.50;;;;;;10477526;28;20271;-78
2022/06/19 13:17:33;;;;;;;8.10;6.67;;;32.00;44.90;;;;;;10471056;28;20239;-78
2022/06/19 13:22:43;;;;;;;7.17;6.43;;;32.00;46.70;;;;;;10479975;28;20254;-79
2022/06/19 13:28:01;;;;;;;8.50;6.87;;;31.80;48.00;;;;;;10488994;28;20220;-80
2022/06/19 13:33:15;;;;;;;10.93;6.87;;;31.70;47.70;;;;;;10494202;28;20278;-81
2022/06/19 13:38:39;;;;;;;12.13;6.33;;;31.70;45.70;;;;;;10504212;28;20619;-80
2022/06/19 13:43:58;;;;;;;8.10;5.80;;;31.70;47.30;;;;;;10498834;28;20580;-81
2022/06/19 13:49:09;;;;;;;10.50;6.80;;;31.70;47.20;;;;;;10470635;28;20271;-80
2022/06/19 13:54:22;;;;;;;10.23;6.77;;;31.70;46.30;;;;;;10500613;28;21006;-80
2022/06/19 13:59:49;;;;;;;9.67;6.07;;;31.60;47.30;;;;;;10466802;28;20199;-81
2022/06/19 14:05:06;;;;;;;8.57;6.80;;;31.60;47.50;;;;;;10506491;28;20240;-80
2022/06/19 14:10:27;;;;;;;11.10;7.03;;;31.50;47.70;;;;;;10467630;28;20209;-80
2022/06/19 14:15:40;;;;;;;10.13;6.77;;;31.40;48.00;;;;;;10510100;28;20217;-80
2022/06/19 14:20:59;;;;;;;14.10;8.00;;;31.40;49.10;;;;;;10501279;28;20192;-80
2022/06/19 14:26:10;;;;;;;12.60;6.83;;;31.30;47.40;;;;;;10482765;28;20584;-80
2022/06/19 14:31:17;;;;;;;11.97;8.03;;;31.40;47.80;;;;;;10504716;28;20289;-78
2022/06/19 14:36:30;;;;;;;9.50;5.80;;;31.50;46.50;;;;;;10492151;28;20323;-79
2022/06/19 14:41:35;;;;;;;11.53;7.27;;;31.60;49.10;;;;;;10476404;28;20200;-79
2022/06/19 14:47:06;;;;;;;6.50;5.90;;;31.50;46.70;;;;;;10496423;28;20338;-79
2022/06/19 14:52:34;;;;;;;8.47;6.10;;;31.50;48.80;;;;;;10493828;28;20201;-79
2022/06/19 14:57:44;;;;;;;7.60;6.43;;;31.40;48.50;;;;;;10486129;28;20960;-79
2022/06/19 15:02:52;;;;;;;9.77;6.47;;;31.40;47.60;;;;;;10470573;28;20263;-78
2022/06/19 15:08:00;;;;;;;6.67;5.97;;;31.40;47.60;;;;;;10490834;28;20292;-79
2022/06/19 15:13:17;;;;;;;6.43;5.57;;;31.40;47.30;;;;;;10472712;28;20237;-79
2022/06/19 15:18:23;;;;;;;6.53;5.73;;;31.30;49.40;;;;;;10497930;28;20200;-79
2022/06/19 15:23:41;;;;;;;9.80;6.57;;;31.30;48.00;;;;;;10480945;28;20676;-79
2022/06/19 15:29:04;;;;;;;9.33;7.00;;;31.30;47.60;;;;;;10474609;28;20307;-79
2022/06/19 15:34:35;;;;;;;5.70;5.07;;;31.30;46.50;;;;;;10481967;28;20229;-79
2022/06/19 15:39:45;;;;;;;6.53;4.80;;;31.20;48.10;;;;;;10477068;28;20196;-78
2022/06/19 15:45:13;;;;;;;12.43;6.07;;;31.10;47.30;;;;;;10462837;28;20410;-79
2022/06/19 15:50:26;;;;;;;6.50;5.83;;;31.20;45.70;;;;;;10491889;28;20377;-79
2022/06/19 15:55:34;;;;;;;6.10;5.60;;;31.10;46.20;;;;;;10493169;28;20231;-79
2022/06/19 16:00:39;;;;;;;6.90;5.63;;;31.20;45.00;;;;;;10485303;28;21000;-79
2022/06/19 16:05:43;;;;;;;7.70;4.70;;;31.20;45.80;;;;;;10493924;28;20219;-78
2022/06/19 16:10:50;;;;;;;8.83;6.47;;;31.20;45.80;;;;;;10482463;28;20224;-78
2022/06/19 16:16:09;;;;;;;8.47;5.47;;;31.20;44.30;;;;;;10490555;28;20213;-77
2022/06/19 16:21:14;;;;;;;11.03;5.10;;;31.30;43.60;;;;;;10481062;28;20205;-79
2022/06/19 16:26:22;;;;;;;8.93;5.43;;;31.50;43.00;;;;;;10445802;28;20236;-79
2022/06/19 16:31:28;;;;;;;6.67;4.93;;;31.50;45.30;;;;;;10489836;28;20672;-78
2022/06/19 16:47:24;;;;;;;5.77;5.20;;;31.00;49.00;;;;;;10499189;28;20228;-79
2022/06/19 16:52:28;;;;;;;7.63;6.13;;;30.80;48.30;;;;;;10498446;28;20643;-76
2022/06/19 16:57:33;;;;;;;9.50;6.37;;;30.80;50.20;;;;;;10471739;28;20628;-77
2022/06/19 17:02:42;;;;;;;10.27;6.80;;;30.80;51.60;;;;;;10478716;28;20487;-78
2022/06/19 17:13:10;;;;;;;6.90;6.30;;;30.80;52.40;;;;;;10498981;28;20294;-78
2022/06/19 17:18:15;;;;;;;9.47;6.90;;;30.70;52.00;;;;;;10474453;28;20190;-77
2022/06/19 17:23:22;;;;;;;5.87;5.37;;;30.70;51.30;;;;;;10496983;28;20283;-77
2022/06/19 17:28:24;;;;;;;6.83;6.23;;;30.70;51.20;;;;;;10476969;28;20221;-79
2022/06/19 17:33:37;;;;;;;6.03;5.57;;;30.70;52.60;;;;;;10495999;28;20317;-79
2022/06/19 17:38:45;;;;;;;6.30;5.80;;;30.70;52.00;;;;;;10500683;28;20281;-79
2022/06/19 17:43:52;;;;;;;7.50;6.13;;;30.60;52.90;;;;;;10490688;28;20216;-79
2022/06/19 17:48:58;;;;;;;10.03;5.83;;;30.40;54.20;;;;;;10451634;28;20233;-78
2022/06/19 17:54:05;;;;;;;7.03;6.37;;;30.20;54.40;;;;;;10479668;28;20588;-78
2022/06/19 17:59:23;;;;;;;7.40;6.03;;;30.10;54.40;;;;;;10466307;28;20301;-79
2022/06/19 18:04:31;;;;;;;6.13;5.63;;;30.10;53.60;;;;;;10482479;28;20234;-77
2022/06/19 18:09:35;;;;;;;7.53;6.83;;;30.00;55.40;;;;;;10472724;28;20282;-78
2022/06/19 18:14:45;;;;;;;11.27;5.90;;;29.90;53.60;;;;;;10470740;28;20256;-78
2022/06/19 18:19:47;;;;;;;6.10;5.50;;;29.80;55.10;;;;;;10489298;28;20196;-78
2022/06/19 18:24:51;;;;;;;7.70;6.73;;;29.80;55.30;;;;;;10494988;28;20228;-78
2022/06/19 18:29:58;;;;;;;7.10;5.87;;;29.70;56.40;;;;;;10489629;28;20734;-78
2022/06/19 18:35:05;;;;;;;9.83;7.33;;;29.80;56.70;;;;;;10489857;28;20221;-78
2022/06/19 18:40:13;;;;;;;12.07;6.97;;;29.80;57.00;;;;;;10484413;28;20205;-78
2022/06/19 18:45:15;;;;;;;7.13;6.53;;;29.80;58.00;;;;;;10444544;28;20220;-79
2022/06/19 18:50:17;;;;;;;11.00;6.43;;;29.80;57.50;;;;;;10454784;28;20243;-79
2022/06/19 18:55:28;;;;;;;7.50;6.80;;;29.80;57.40;;;;;;10464373;28;20227;-79
2022/06/19 19:00:33;;;;;;;7.70;6.87;;;29.60;58.10;;;;;;10452363;28;20369;-79
2022/06/19 19:05:35;;;;;;;7.83;6.40;;;29.50;58.30;;;;;;10462968;28;20291;-80
2022/06/19 19:10:39;;;;;;;7.23;6.57;;;29.40;58.40;;;;;;10456192;28;20232;-80
2022/06/19 19:15:43;;;;;;;9.57;7.50;;;29.20;58.70;;;;;;10463554;28;20209;-80
2022/06/19 19:20:46;;;;;;;6.90;6.30;;;29.10;58.40;;;;;;10466197;28;20193;-79
2022/06/19 19:25:51;;;;;;;7.87;6.40;;;29.00;58.50;;;;;;10454846;28;20261;-80
2022/06/19 19:30:54;;;;;;;9.50;6.57;;;28.90;58.50;;;;;;10458043;28;20786;-79
2022/06/19 19:35:57;;;;;;;9.50;7.00;;;28.80;58.00;;;;;;10487679;28;20245;-80
2022/06/19 19:41:01;;;;;;;9.73;7.33;;;28.80;57.70;;;;;;10455458;28;20189;-77
2022/06/19 19:46:17;;;;;;;8.80;7.10;;;28.70;58.30;;;;;;10492909;28;20220;-78
2022/06/19 19:51:19;;;;;;;6.93;6.43;;;28.50;58.80;;;;;;10472129;28;20221;-79
2022/06/19 19:56:25;;;;;;;7.17;6.43;;;28.40;58.90;;;;;;10482404;28;20588;-80
2022/06/19 20:01:27;;;;;;;16.70;7.20;;;28.30;58.60;;;;;;10479697;28;20213;-79
2022/06/19 20:11:51;;;;;;;13.20;8.10;;;28.20;60.40;;;;;;10483391;28;20231;-79
2022/06/19 20:16:53;;;;;;;15.13;7.83;;;28.10;60.10;;;;;;10467581;28;20297;-78
2022/06/19 20:22:01;;;;;;;11.07;9.97;;;28.00;60.00;;;;;;10475672;28;20620;-79
2022/06/19 20:27:11;;;;;;;9.13;7.87;;;27.90;62.30;;;;;;10489890;28;20240;-79
2022/06/19 20:32:18;;;;;;;8.37;7.63;;;27.80;61.50;;;;;;10444717;28;20217;-79
2022/06/19 20:37:21;;;;;;;8.70;7.80;;;27.70;62.40;;;;;;10458864;28;20227;-79
2022/06/19 20:42:25;;;;;;;8.37;7.67;;;27.60;62.20;;;;;;10461865;28;20270;-78
2022/06/19 20:47:30;;;;;;;7.90;7.10;;;27.60;63.20;;;;;;10459731;28;20257;-79
2022/06/19 20:52:35;;;;;;;10.33;8.60;;;27.50;63.40;;;;;;10462554;28;20781;-78
2022/06/19 20:57:39;;;;;;;7.50;6.80;;;27.50;62.50;;;;;;10470695;28;20706;-79
2022/06/19 21:02:41;;;;;;;9.00;7.33;;;27.40;62.50;;;;;;10483799;28;20725;-78
2022/06/19 21:07:43;;;;;;;9.23;7.07;;;27.40;62.30;;;;;;10470537;28;20256;-78
2022/06/19 21:12:47;;;;;;;12.10;7.63;;;27.40;61.70;;;;;;10411503;28;20673;-79
2022/06/19 21:17:49;;;;;;;10.23;7.10;;;27.40;61.90;;;;;;10443565;28;20201;-78
2022/06/19 21:22:55;;;;;;;10.33;7.60;;;27.30;61.90;;;;;;10441501;28;20201;-77
2022/06/19 21:28:02;;;;;;;7.40;6.70;;;27.30;61.40;;;;;;10468376;28;20201;-79
2022/06/19 21:33:07;;;;;;;8.87;7.43;;;27.20;62.40;;;;;;10490975;28;20243;-78
2022/06/19 21:38:13;;;;;;;11.00;7.57;;;27.20;63.00;;;;;;10497586;28;20573;-79
2022/06/19 21:43:19;;;;;;;8.20;7.40;;;27.10;63.30;;;;;;10489805;28;20223;-79
2022/06/19 21:48:21;;;;;;;8.90;8.00;;;27.10;63.70;;;;;;10494709;28;20201;-78
2022/06/19 21:53:23;;;;;;;8.30;7.60;;;27.00;63.80;;;;;;10493528;28;20293;-79
2022/06/19 21:58:27;;;;;;;10.43;8.47;;;27.00;64.00;;;;;;10501554;28;20204;-79
2022/06/19 22:03:30;;;;;;;10.03;7.80;;;26.90;63.50;;;;;;10480837;28;20225;-78
2022/06/19 22:08:32;;;;;;;7.40;6.80;;;26.90;62.80;;;;;;10500119;28;20205;-78
2022/06/19 22:13:36;;;;;;;7.67;6.97;;;26.90;63.50;;;;;;10493529;28;20232;-79
2022/06/19 22:18:39;;;;;;;8.70;7.33;;;26.90;63.10;;;;;;10502759;28;20205;-79
2022/06/19 22:23:42;;;;;;;12.03;7.97;;;26.80;63.60;;;;;;10490878;28;20228;-80
2022/06/19 22:28:49;;;;;;;6.97;6.40;;;26.80;63.50;;;;;;10482837;28;20215;-79
2022/06/19 22:33:52;;;;;;;9.33;7.53;;;26.80;63.70;;;;;;10497603;28;20216;-79
2022/06/19 22:38:57;;;;;;;9.60;7.83;;;26.70;64.30;;;;;;10467423;28;20719;-78
2022/06/19 22:44:05;;;;;;;14.53;7.70;;;26.70;65.10;;;;;;10501396;28;20210;-79
2022/06/19 22:49:10;;;;;;;9.57;8.10;;;26.60;65.70;;;;;;10506639;28;20262;-79
2022/06/19 22:54:13;;;;;;;21.50;8.90;;;26.60;66.00;;;;;;10505715;28;20231;-79
2022/06/19 23:04:52;;;;;;;8.70;7.67;;;26.50;67.40;;;;;;10460403;28;20252;-79
2022/06/19 23:09:54;;;;;;;14.40;9.50;;;26.40;67.10;;;;;;10501597;28;20248;-80
2022/06/19 23:14:58;;;;;;;8.63;7.73;;;26.40;67.60;;;;;;10491445;28;20205;-79
2022/06/19 23:20:01;;;;;;;14.73;8.20;;;26.40;67.90;;;;;;10505663;28;20216;-79
2022/06/19 23:25:06;;;;;;;10.23;8.00;;;26.30;68.00;;;;;;10498034;28;20688;-78
2022/06/19 23:30:16;;;;;;;10.53;8.33;;;26.30;68.40;;;;;;10498029;28;20707;-79
2022/06/19 23:35:21;;;;;;;10.47;8.23;;;26.30;68.90;;;;;;10473083;28;20308;-79
2022/06/19 23:40:27;;;;;;;9.03;7.63;;;26.20;69.10;;;;;;10491811;28;20248;-79
2022/06/19 23:45:31;;;;;;;12.90;8.73;;;26.10;69.70;;;;;;10485243;28;20700;-79
2022/06/19 23:50:37;;;;;;;10.90;9.27;;;26.00;70.00;;;;;;10480814;28;20577;-79
2022/06/19 23:55:39;;;;;;;11.30;8.73;;;26.00;70.40;;;;;;10488376;28;20239;-79
